Terminal Aerodrome Forecast
Issued by NWS Sterling, VA

Home | Current Version | Previous Version | Text Only | Print | Product List | Glossary On
Versions: 1 2 3 4 5 6 7 8 9 10 11 12 13 14
599
FTUS41 KLWX 091329 AAA
TAFMRB
TAF AMD
KMRB 091329Z 0913/1012 00000KT 1SM -SN BR OVC006
     FM091600 VRB03KT 2SM -SHSN OVC020
     FM092100 29008KT P6SM SCT040=

USA.gov is the U.S. government's official web portal to all federal, state and local government web resources and services.